Latest Coastal Weather Observations for Gabo Island

IDV60701

Issued at 9:11 pm EDT Sunday 1 February 2015 (issued every 10 minutes, with the page automatically refreshed every 10 minutes)

About coastal observations | Map of coastal stations | Coastal observations for VIC | Marine services | Other Formats
Station Details ID: 084016 Name: GABO ISLAND LIGHTHOUSE Lat: -37.57 Lon: 149.92 Height: 15.2 m
Data from the previous 72 hours. | See also: Recent months at Gabo Island
Date/Time
EDT
Temp

°C
Wind Pressure Rain
since 9am
mm
Weather Cloud Vis
km
Sea
Height
m
Swell
Dir
 
Speed
knots
Gust
knots
hPa Trend Height
m
Period
s
Dir
01/09:00pm 18.1 SSW 19 22 1013.6 - 4.0 Fine Mostly cloudy 35 1 2.5 10 S
01/08:30pm 18.1 SSW 19 23 1013.5 - 4.0 - - - - - - -
01/08:00pm 18.1 SSW 19 22 1013.4 - 4.0 - - - - - - -
01/07:30pm 18.5 SSW 21 25 1012.9 - 4.0 - - - - - - -
01/07:00pm 18.5 SSW 20 23 1012.6 - 4.0 - - - - - - -
01/06:30pm 18.8 SSW 21 26 1012.3 - 4.0 - - - - - - -
01/06:00pm 18.8 SSW 22 26 1011.8 - 4.0 - - - - - - -
01/05:30pm 18.2 SSW 21 25 1011.8 - 4.0 - - - - - - -
01/05:00pm 17.2 SSW 24 32 1011.8 - 3.8 - - - - - - -
01/04:57pm 17.8 SSW 22 32 1011.7 - 3.8 - - - - - - -
01/04:30pm 18.3 SSW 19 24 1011.7 - 3.8 - - - - - - -
01/04:00pm 19.1 SSW 21 24 1011.6 - 3.8 - - - - - - -
01/03:30pm 19.2 SSW 22 25 1011.5 - 3.8 - - - - - - -
01/03:00pm 19.0 SSW 21 25 1011.1 - 3.8 Fine Partly cloudy 30 1 2.5 10 S
01/02:30pm 18.9 SSW 21 25 1011.2 - 3.8 - - - - - - -
01/02:00pm 18.5 SSW 19 22 1011.2 - 3.8 - - - - - - -
01/01:30pm 17.6 SSW 19 21 1011.3 - 3.8 - - - - - - -
01/01:00pm 17.9 SSW 16 19 1011.4 - 3.8 - - - - - - -
01/12:30pm 16.8 WSW 15 19 1011.3 - 3.4 - - - - - - -
01/12:00pm 16.7 WSW 15 19 1011.3 - 2.8 - - - - - - -
01/11:30am 16.5 WSW 16 21 1011.4 - 2.2 - - - - - - -
01/11:00am 16.3 W 15 20 1011.1 - 1.2 - - - - - - -
01/10:30am 16.3 W 20 23 1011.0 - 0.4 - - - - - - -
01/10:00am 16.4 W 17 21 1010.7 - 0.4 - - - - - - -
01/09:30am 16.0 W 18 22 1010.6 - 0.2 - - - - - - -
01/09:00am 15.9 W 19 24 1010.4 - 15.2 Drizzle Cloudy 5 1 2.5 10 S
01/08:30am 15.6 W 20 23 1010.2 - 15.2 - - - - - - -
01/08:00am 15.6 W 18 23 1009.9 - 14.8 - - - - - - -
01/07:30am 15.9 WSW 18 23 1009.6 - 14.2 - - - - - - -
01/07:00am 15.8 WSW 18 22 1009.3 - 13.8 - - - - - - -
01/06:30am 15.6 WSW 17 22 1009.2 - 13.8 - - - - - - -
01/06:00am 15.6 WSW 19 23 1008.8 - 13.8 - - - - - - -
01/05:30am 15.7 SW 25 32 1008.7 - 13.8 - - - - - - -
01/05:08am 15.6 WSW 21 31 1008.6 - 13.4 - - - - - - -
01/05:00am 15.4 WSW 21 25 1008.6 - 13.2 - - - - - - -
01/04:30am 15.1 WSW 26 34 1008.4 - 12.6 - - - - - - -
01/04:25am 15.1 WSW 24 34 1008.4 - 12.4 - - - - - - -
01/04:00am 16.5 WSW 20 27 1008.2 - 11.4 - - - - - - -
01/03:40am 15.7 WSW 17 21 1008.3 - 10.8 - - - - - - -
01/03:30am 16.3 SW 20 23 1008.3 - 10.2 - - - - - - -
01/03:00am 16.4 SW 21 26 1008.3 - 9.6 Showers Cloudy 2 2 3.0 10 S
01/02:30am 16.2 WSW 19 29 1008.4 - 8.4 - - - - - - -
01/02:00am 15.9 WSW 15 19 1008.7 - 7.2 - - - - - - -
01/01:55am 15.8 WSW 15 19 1008.7 - 7.0 - - - - - - -
01/01:30am 16.2 SW 20 25 1009.0 - 6.8 - - - - - - -
01/01:00am 16.4 SW 22 28 1009.3 - 6.0 - - - - - - -
01/12:53am 16.5 SW 22 27 1009.3 - 5.8 - - - - - - -
01/12:30am 16.0 W 16 22 1009.4 - 4.6 - - - - - - -
01/12:00am 16.0 W 16 19 1009.3 - 3.0 - - - - - - -
 
Date/Time
EDT
Temp

°C
Wind Pressure Rain
since 9am
mm
Weather Cloud Vis
km
Sea
Height
m
Swell
Dir
 
Speed
knots
Gust
knots
hPa Trend Height
m
Period
s
Dir
31/11:30pm 16.0 W 18 23 1009.4 - 2.6 - - - - - - -
31/11:00pm 16.2 W 18 22 1009.7 - 2.6 - - - - - - -
31/10:30pm 16.6 WSW 22 29 1009.4 - 2.4 - - - - - - -
31/10:00pm 16.4 WSW 19 23 1009.5 - 1.6 - - - - - - -
31/09:30pm 17.1 WSW 20 25 1009.2 - 1.0 - - - - - - -
31/09:00pm 17.0 W 20 27 1008.5 - 1.0 Fine Mostly cloudy 25 2 3.0 10 S
31/08:30pm 16.8 WSW 21 25 1008.4 - 1.0 - - - - - - -
31/08:00pm 16.8 WSW 21 26 1008.1 - 1.0 - - - - - - -
31/07:30pm 16.7 WSW 21 28 1007.9 - 1.0 - - - - - - -
31/07:00pm 16.8 WSW 23 29 1007.7 - 1.0 - - - - - - -
31/06:30pm 16.9 WSW 23 28 1007.4 - 1.0 - - - - - - -
31/06:00pm 16.9 WSW 23 29 1007.1 - 1.0 - - - - - - -
31/05:30pm 16.9 WSW 26 33 1007.0 - 1.0 - - - - - - -
31/05:00pm 16.5 WSW 27 32 1007.0 - 1.0 - - - - - - -
31/04:30pm 16.6 WSW 25 32 1007.2 - 1.0 - - - - - - -
31/04:00pm 16.4 WSW 21 25 1007.1 - 0.6 - - - - - - -
31/03:30pm 16.8 WSW 29 36 1006.9 - 0.6 - - - - - - -
31/03:28pm 16.4 WSW 32 37 1006.8 - 0.6 - - - - - - -
31/03:00pm 16.9 WSW 22 29 1006.7 - 0.4 Drizzle Cloudy 2 2 3.5 10 SE
31/02:30pm 16.6 WSW 23 29 1006.7 - 0.4 - - - - - - -
31/02:00pm 16.3 WSW 23 28 1006.7 - 0.2 - - - - - - -
31/01:30pm 15.9 W 22 28 1006.8 - 0.2 - - - - - - -
31/01:00pm 15.8 W 22 29 1006.8 - 0.2 - - - - - - -
31/12:30pm 15.7 W 22 28 1006.8 - 0.2 - - - - - - -
31/12:00pm 16.2 WSW 22 27 1006.8 - 0.2 - - - - - - -
31/11:30am 16.0 W 22 28 1007.0 - 0.0 - - - - - - -
31/11:00am 16.2 W 23 28 1006.9 - 0.0 - - - - - - -
31/10:30am 15.4 W 23 28 1007.1 - 0.0 - - - - - - -
31/10:00am 15.3 W 23 30 1007.1 - 0.0 - - - - - - -
31/09:30am 14.6 W 22 29 1007.2 - 0.0 - - - - - - -
31/09:00am 14.7 W 22 29 1007.0 - 16.4 Rain Cloudy 8 2 3.5 10 SE
31/08:30am 14.9 W 24 29 1007.0 - 16.2 - - - - - - -
31/08:00am 14.9 WSW 24 32 1006.6 - 15.8 - - - - - - -
31/07:30am 14.6 WSW 26 31 1006.5 - 15.6 - - - - - - -
31/07:00am 14.8 WSW 23 29 1006.1 - 15.2 - - - - - - -
31/06:30am 15.0 W 23 30 1005.8 - 15.2 - - - - - - -
31/06:00am 15.5 WSW 24 30 1005.5 - 15.2 - - - - - - -
31/05:30am 15.8 WSW 24 31 1005.6 - 15.2 - - - - - - -
31/05:02am 15.9 WSW 26 37 1005.3 - 15.2 - - - - - - -
31/05:00am 16.3 WSW 25 32 1005.4 - 15.2 - - - - - - -
31/04:30am 17.1 SW 28 39 1005.3 - 15.0 - - - - - - -
31/04:26am 16.8 SW 29 39 1005.2 - 15.0 - - - - - - -
31/04:00am 15.4 WSW 27 36 1005.5 - 15.0 - - - - - - -
31/03:30am 16.3 WSW 27 36 1005.8 - 15.0 - - - - - - -
31/03:00am 17.1 SW 33 41 1005.7 - 15.0 Fine Cloudy 20 5 4.5 9 SE
31/02:30am 16.9 SW 33 40 1006.0 - 15.0 - - - - - - -
31/02:27am 16.9 SW 36 41 1006.0 - 15.0 - - - - - - -
31/02:03am 16.2 WSW 26 36 1006.3 - 15.0 - - - - - - -
31/02:00am 16.2 WSW 28 36 1006.2 - 15.0 - - - - - - -
31/01:30am 16.9 SW 34 44 1006.3 - 15.0 - - - - - - -
31/01:25am 16.6 SW 33 44 1006.3 - 15.0 - - - - - - -
31/01:00am 16.8 SW 34 42 1006.6 - 15.0 - - - - - - -
31/12:30am 16.7 SW 35 41 1006.8 - 15.0 - - - - - - -
31/12:01am 16.7 SW 33 43 1007.0 - 15.0 - - - - - - -
31/12:00am 16.5 SW 35 43 1006.9 - 15.0 - - - - - - -
 
Date/Time
EDT
Temp

°C
Wind Pressure Rain
since 9am
mm
Weather Cloud Vis
km
Sea
Height
m
Swell
Dir
 
Speed
knots
Gust
knots
hPa Trend Height
m
Period
s
Dir
30/11:34pm 16.0 SW 33 43 1007.1 - 15.0 - - - - - - -
30/11:30pm 16.1 SW 34 42 1007.2 - 15.0 - - - - - - -
30/11:08pm 16.2 SW 33 44 1007.3 - 14.8 - - - - - - -
30/11:00pm 16.1 SW 34 41 1007.3 - 14.8 - - - - - - -
30/10:30pm 16.2 SW 34 42 1007.4 - 14.4 - - - - - - -
30/10:00pm 16.1 SW 34 45 1007.8 - 13.8 - - - - - - -
30/09:32pm 16.6 SW 32 42 1007.8 - 12.6 - - - - - - -
30/09:30pm 16.5 SW 33 42 1007.8 - 12.4 - - - - - - -
30/09:00pm 16.0 SW 35 45 1007.3 - 10.4 Rain Cloudy 2 5 4.5 9 SE
30/08:39pm 16.2 SW 33 43 1007.2 - 8.8 - - - - - - -
30/08:30pm 16.2 SW 34 42 1007.2 - 8.6 - - - - - - -
30/08:05pm 16.0 SW 36 46 1007.0 - 6.6 - - - - - - -
30/08:00pm 16.0 SW 37 45 1007.0 - 6.2 - - - - - - -
30/07:43pm 16.3 SW 36 46 1007.0 - 4.6 - - - - - - -
30/07:30pm 16.2 SW 37 44 1006.9 - 4.2 - - - - - - -
30/07:01pm 16.7 SW 33 43 1006.7 - 3.0 - - - - - - -
30/07:00pm 16.7 SW 34 43 1006.8 - 3.0 - - - - - - -
30/06:30pm 16.6 SW 33 39 1006.5 - 2.8 - - - - - - -
30/06:03pm 17.5 SSW 32 42 1006.4 - 2.4 - - - - - - -
30/06:00pm 17.5 SSW 34 41 1006.3 - 2.4 - - - - - - -
30/05:30pm 17.5 SSW 35 45 1006.4 - 2.4 - - - - - - -
30/05:28pm 17.3 SSW 35 45 1006.3 - 2.4 - - - - - - -
30/05:00pm 17.3 SSW 33 39 1006.5 - 2.4 - - - - - - -
30/04:30pm 16.4 SSW 33 43 1006.6 - 2.2 - - - - - - -
30/04:23pm 17.2 SSW 31 41 1006.7 - 2.2 - - - - - - -
30/04:00pm 16.9 SSW 31 39 1006.7 - 2.2 - - - - - - -
30/03:33pm 17.4 SSW 33 44 1006.6 - 2.0 - - - - - - -
30/03:30pm 18.1 SSW 32 39 1006.7 - 2.0 - - - - - - -
30/03:18pm 17.5 SSW 30 40 1006.8 - 2.0 - - - - - - -
30/03:00pm 17.6 SSW 31 37 1006.6 - 2.0 Distant precip. Cloudy 10 5 4.5 8 SE
30/02:43pm 17.6 SSW 32 43 1006.8 - 2.0 - - - - - - -
30/02:30pm 17.4 SSW 33 41 1006.8 - 2.0 - - - - - - -
30/02:00pm 18.1 SSW 33 39 1006.9 - 2.0 - - - - - - -
30/01:30pm 18.0 SSW 32 40 1007.0 - 2.0 - - - - - - -
30/01:00pm 18.5 SSW 31 36 1007.0 - 2.0 - - - - - - -
30/12:30pm 18.0 SSW 30 36 1007.3 - 2.0 - - - - - - -
30/12:00pm 18.0 SSW 33 39 1007.4 - 2.0 - - - - - - -
30/11:30am 17.8 SSW 30 37 1007.7 - 2.0 - - - - - - -
30/11:00am 17.5 SSW 32 40 1007.8 - 1.8 - - - - - - -
30/10:30am 16.6 SSW 32 39 1008.1 - 1.8 - - - - - - -
30/10:10am 17.0 SSW 30 46 1008.2 - 1.6 - - - - - - -
30/10:00am 16.9 SSW 31 37 1008.3 - 1.6 - - - - - - -
30/09:30am 16.5 SSW 31 37 1008.4 - 0.8 - - - - - - -
30/09:00am 16.8 SSW 33 40 1008.3 - 19.8 Showers Cloudy 4 5 4.5 8 SE
30/08:30am 15.9 SSW 34 41 1008.5 - 19.8 - - - - - - -
30/08:00am 16.7 SSW 32 41 1008.5 - 19.8 - - - - - - -
30/07:59am 16.7 SSW 31 41 1008.5 - 19.8 - - - - - - -
30/07:30am 16.6 SSW 33 40 1008.4 - 19.2 - - - - - - -
30/07:00am 16.3 SW 31 41 1008.5 - 19.2 - - - - - - -
30/06:57am 15.8 SW 31 41 1008.5 - 19.2 - - - - - - -
30/06:30am 15.9 SW 33 41 1008.6 - 18.2 - - - - - - -
30/06:00am 15.6 SSW 34 41 1008.7 - 18.0 - - - - - - -
30/05:30am 16.2 SW 31 38 1008.7 - 17.6 - - - - - - -
30/05:00am 15.9 SSW 32 39 1008.9 - 17.6 - - - - - - -
30/04:30am 15.8 SSW 32 42 1009.2 - 17.2 - - - - - - -
30/04:00am 15.6 SSW 32 45 1009.5 - 16.6 - - - - - - -
30/03:59am 16.7 SSW 32 44 1009.5 - 16.2 - - - - - - -
30/03:30am 16.3 SSW 32 38 1009.8 - 16.2 - - - - - - -
30/03:00am 16.3 SSW 30 38 1010.1 - 16.2 Showers Cloudy 10 3 3.0 8 SE
30/02:30am 15.8 SSW 34 41 1010.4 - 16.2 - - - - - - -
30/02:00am 16.3 SSW 34 41 1010.6 - 16.2 - - - - - - -
30/01:30am 15.8 SSW 33 41 1010.9 - 16.0 - - - - - - -
30/01:00am 15.5 S 31 41 1011.1 - 15.4 - - - - - - -
30/12:49am 15.7 S 28 38 1011.4 - 14.6 - - - - - - -
30/12:30am 16.9 SSW 31 39 1011.5 - 13.0 - - - - - - -
30/12:00am 16.7 SSW 33 40 1011.5 - 13.0 - - - - - - -
 
Date/Time
EDT
Temp

°C
Wind Pressure Rain
since 9am
mm
Weather Cloud Vis
km
Sea
Height
m
Swell
Dir
 
Speed
knots
Gust
knots
hPa Trend Height
m
Period
s
Dir
29/11:30pm 16.1 SSW 33 41 1011.9 - 13.0 - - - - - - -
29/11:03pm 16.4 SSW 30 40 1012.1 - 13.0 - - - - - - -
29/11:00pm 15.9 SSW 32 40 1012.2 - 13.0 - - - - - - -
29/10:30pm 16.5 SSW 30 40 1012.6 - 13.0 - - - - - - -
29/10:06pm 16.7 SSW 29 39 1012.9 - 13.0 - - - - - - -
29/10:00pm 16.8 SSW 29 35 1013.0 - 13.0 - - - - - - -
29/09:30pm 17.3 S 30 37 1012.9 - 13.0 - - - - - - -

Other Formats:

Comma delimited format used in spreadsheet applications
http://www.bom.gov.au/fwo/IDV60701/IDV60701.94933.axf

JavaScript Object Notation format (JSON) in row-major order
http://www.bom.gov.au/fwo/IDV60701/IDV60701.94933.json